createdAt,value
2019-04-11T00:02:38.668Z,5.50
2019-04-11T00:06:43.528Z,5.40
2019-04-11T00:10:49.194Z,5.30
2019-04-11T00:14:54.098Z,5.20
2019-04-11T00:18:58.899Z,5.20
2019-04-11T00:23:03.861Z,4.90
2019-04-11T00:27:08.744Z,5.00
2019-04-11T00:31:14.637Z,4.80
2019-04-11T00:35:19.699Z,4.80
2019-04-11T00:39:25.715Z,4.80
2019-04-11T00:43:36.927Z,4.80
2019-04-11T00:47:38.231Z,4.70
2019-04-11T00:51:44.329Z,4.70
2019-04-11T00:55:49.185Z,4.60
2019-04-11T00:59:54.341Z,4.50
2019-04-11T01:03:59.211Z,4.60
2019-04-11T01:08:05.157Z,4.50
2019-04-11T01:12:10.355Z,4.50
2019-04-11T01:16:34.779Z,4.50
2019-04-11T01:20:39.981Z,4.40
2019-04-11T01:24:44.604Z,4.30
2019-04-11T01:28:49.221Z,4.30
2019-04-11T01:32:54.883Z,4.20
2019-04-11T01:36:59.670Z,4.20
2019-04-11T01:41:06.513Z,4.20
2019-04-11T01:45:13.579Z,4.10
2019-04-11T01:49:21.882Z,4.10
2019-04-11T01:53:26.906Z,4.10
2019-04-11T01:57:31.808Z,4.30
2019-04-11T02:01:43.133Z,4.10
2019-04-11T02:05:47.902Z,4.00
2019-04-11T02:09:52.844Z,4.00
2019-04-11T02:14:12.111Z,4.10
2019-04-11T02:18:07.663Z,4.00
2019-04-11T02:22:30.642Z,3.90
2019-04-11T02:26:36.043Z,3.90
2019-04-11T02:30:46.475Z,4.00
2019-04-11T02:34:52.376Z,3.90
2019-04-11T02:39:01.332Z,4.00
2019-04-11T02:43:05.000Z,3.90
2019-04-11T02:47:15.552Z,3.90
2019-04-11T02:51:16.275Z,3.80
2019-04-11T02:55:21.717Z,3.70
2019-04-11T02:59:27.426Z,3.70
2019-04-11T03:03:34.166Z,3.70
2019-04-11T03:07:40.100Z,3.70
2019-04-11T03:11:45.161Z,3.60
2019-04-11T03:16:07.499Z,3.70
2019-04-11T03:20:09.339Z,3.60
2019-04-11T03:24:06.159Z,3.40
2019-04-11T03:28:14.775Z,3.30
2019-04-11T03:33:01.405Z,3.40
2019-04-11T03:40:48.190Z,3.30
2019-04-11T03:44:43.835Z,3.20
2019-04-11T03:48:55.680Z,3.30
2019-04-11T03:52:51.690Z,3.00
2019-04-11T03:56:57.264Z,2.90
2019-04-11T04:01:05.531Z,2.80
2019-04-11T04:05:10.612Z,3.10
2019-04-11T04:09:17.105Z,3.00
2019-04-11T04:13:23.248Z,2.90
2019-04-11T04:17:39.281Z,2.90
2019-04-11T04:21:57.500Z,2.70
2019-04-11T04:26:03.238Z,2.90
2019-04-11T04:30:10.723Z,2.60
2019-04-11T04:34:15.496Z,2.30
2019-04-11T04:38:23.317Z,2.40
2019-04-11T04:42:35.999Z,2.30
2019-04-11T04:46:52.687Z,2.40
2019-04-11T04:50:42.201Z,2.50
2019-04-11T04:54:49.212Z,2.60
2019-04-11T04:58:55.852Z,2.50
2019-04-11T05:03:02.304Z,2.60
2019-04-11T05:07:07.546Z,2.40
2019-04-11T05:11:14.011Z,2.40
2019-04-11T05:15:18.865Z,2.50
2019-04-11T05:19:23.795Z,2.70
2019-04-11T05:23:29.694Z,2.70
2019-04-11T05:27:35.653Z,2.90
2019-04-11T05:31:40.783Z,2.90
2019-04-11T05:35:45.852Z,2.70
2019-04-11T05:39:51.002Z,2.80
2019-04-11T05:43:55.825Z,2.90
2019-04-11T05:48:03.091Z,2.80
2019-04-11T05:52:10.265Z,2.80
2019-04-11T05:56:16.802Z,2.80
2019-04-11T06:00:32.643Z,3.00
2019-04-11T06:04:51.764Z,3.10
2019-04-11T06:08:58.571Z,3.20
2019-04-11T06:13:16.450Z,3.20
2019-04-11T06:17:23.874Z,3.30
2019-04-11T06:21:48.475Z,3.40
2019-04-11T06:26:18.831Z,3.50
2019-04-11T06:30:48.732Z,3.70
2019-04-11T06:35:04.462Z,3.80
2019-04-11T06:39:25.740Z,3.90
2019-04-11T06:43:36.468Z,3.90
2019-04-11T06:47:51.527Z,4.00
2019-04-11T06:52:00.114Z,4.00
2019-04-11T06:56:16.730Z,4.20
2019-04-11T07:00:21.725Z,4.40
2019-04-11T07:04:35.813Z,4.40
2019-04-11T07:08:50.949Z,4.60
2019-04-11T07:13:07.447Z,5.00
2019-04-11T07:17:31.765Z,5.00
2019-04-11T07:21:36.959Z,5.20
2019-04-11T07:26:16.713Z,5.30
2019-04-11T07:30:43.520Z,6.20
2019-04-11T07:35:08.589Z,9.20
2019-04-11T07:39:31.304Z,10.50
2019-04-11T07:43:39.087Z,12.50
2019-04-11T07:47:50.346Z,12.60
2019-04-11T07:51:58.230Z,10.70
2019-04-11T07:56:06.097Z,11.90
2019-04-11T08:00:44.162Z,12.70
2019-04-11T08:05:17.453Z,13.00
2019-04-11T08:09:29.164Z,12.90
2019-04-11T08:13:59.969Z,12.10
2019-04-11T08:18:12.532Z,11.90
2019-04-11T08:22:35.125Z,10.80
2019-04-11T08:27:00.739Z,8.60
2019-04-11T08:31:28.877Z,8.50
2019-04-11T08:35:55.103Z,9.80
2019-04-11T08:40:00.058Z,12.20
2019-04-11T08:44:12.521Z,11.80
2019-04-11T08:48:19.218Z,12.90
2019-04-11T08:52:42.376Z,13.30
2019-04-11T08:56:53.613Z,13.30
2019-04-11T09:01:01.733Z,11.50
2019-04-11T09:05:31.182Z,9.90
2019-04-11T09:10:22.269Z,9.10
2019-04-11T09:14:46.387Z,10.00
2019-04-11T09:18:52.435Z,12.10
2019-04-11T09:23:03.746Z,12.20
2019-04-11T09:27:28.834Z,10.90
2019-04-11T09:31:55.990Z,10.30
2019-04-11T09:36:03.774Z,8.70
2019-04-11T09:40:28.259Z,7.60
2019-04-11T09:44:49.112Z,7.40
2019-04-11T09:49:22.714Z,7.60
2019-04-11T09:53:28.285Z,7.90
2019-04-11T09:57:46.172Z,7.50
2019-04-11T10:02:08.451Z,7.50
2019-04-11T10:06:36.599Z,7.70
2019-04-11T10:10:59.748Z,7.70
2019-04-11T10:15:05.118Z,8.10
2019-04-11T10:19:29.645Z,7.20
2019-04-11T10:23:49.191Z,7.90
2019-04-11T10:28:21.715Z,8.20
2019-04-11T10:32:30.931Z,8.00
2019-04-11T10:36:39.155Z,8.50
2019-04-11T10:41:06.316Z,7.80
2019-04-11T10:45:31.179Z,7.40
2019-04-11T10:49:52.628Z,7.60
2019-04-11T10:53:57.623Z,7.60
2019-04-11T10:58:12.949Z,7.40
2019-04-11T11:02:31.679Z,8.40
2019-04-11T11:06:37.655Z,8.50
2019-04-11T11:10:43.783Z,8.70
2019-04-11T11:15:09.454Z,9.70
2019-04-11T11:20:03.847Z,9.30
2019-04-11T11:24:39.076Z,8.20
2019-04-11T11:29:07.061Z,8.10
2019-04-11T11:33:08.149Z,8.00
2019-04-11T11:37:37.504Z,8.30
2019-04-11T11:42:00.110Z,8.00
2019-04-11T11:46:25.698Z,7.80
2019-04-11T11:50:32.920Z,8.00
2019-04-11T11:54:39.719Z,7.30
2019-04-11T11:59:02.890Z,7.10
2019-04-11T12:03:23.450Z,7.30
2019-04-11T12:07:36.115Z,7.30
2019-04-11T12:11:39.981Z,7.10
2019-04-11T12:16:05.856Z,7.50
2019-04-11T12:20:16.918Z,7.30
2019-04-11T12:24:34.311Z,7.10
2019-04-11T12:28:59.567Z,7.60
2019-04-11T12:33:41.813Z,8.30
2019-04-11T12:37:52.959Z,8.10
2019-04-11T12:42:08.397Z,8.10
2019-04-11T12:46:41.231Z,8.50
2019-04-11T12:51:07.590Z,8.80
2019-04-11T12:55:15.039Z,9.60
2019-04-11T12:59:23.183Z,9.40
2019-04-11T13:03:45.649Z,9.40
2019-04-11T13:08:26.212Z,8.70
2019-04-11T13:12:40.880Z,8.00
2019-04-11T13:16:47.184Z,8.30
2019-04-11T13:21:10.942Z,8.10
2019-04-11T13:25:38.210Z,7.80
2019-04-11T13:30:05.307Z,7.60
2019-04-11T13:34:11.262Z,7.40
2019-04-11T13:38:18.710Z,7.20
2019-04-11T13:42:45.160Z,7.70
2019-04-11T13:47:08.448Z,8.00
2019-04-11T13:51:20.436Z,7.80
2019-04-11T13:55:29.897Z,7.80
2019-04-11T13:59:52.418Z,7.40
2019-04-11T14:04:07.832Z,7.60
2019-04-11T14:08:12.305Z,7.60
2019-04-11T14:12:16.976Z,7.10
2019-04-11T14:16:22.464Z,7.40
2019-04-11T14:20:58.417Z,7.90
2019-04-11T14:25:20.982Z,7.90
2019-04-11T14:29:51.018Z,7.60
2019-04-11T14:34:13.368Z,7.50
2019-04-11T14:38:19.248Z,7.50
2019-04-11T14:42:56.808Z,7.30
2019-04-11T14:47:19.467Z,6.90
2019-04-11T14:51:58.854Z,7.30
2019-04-11T14:56:06.619Z,6.90
2019-04-11T15:00:24.253Z,6.80
2019-04-11T15:04:57.082Z,6.70
2019-04-11T15:09:29.780Z,7.00
2019-04-11T15:13:34.508Z,6.70
2019-04-11T15:17:40.270Z,7.00
2019-04-11T15:22:10.113Z,6.90
2019-04-11T15:26:32.112Z,6.90
2019-04-11T15:30:38.166Z,6.70
2019-04-11T15:34:46.122Z,6.70
2019-04-11T15:39:11.548Z,6.70
2019-04-11T15:43:42.171Z,6.50
2019-04-11T15:47:51.828Z,6.70
2019-04-11T15:52:00.030Z,6.80
2019-04-11T15:56:36.224Z,6.80
2019-04-11T16:00:56.918Z,6.60
2019-04-11T16:05:19.690Z,6.70
2019-04-11T16:09:24.327Z,6.60
2019-04-11T16:13:36.843Z,6.60
2019-04-11T16:18:07.274Z,6.60
2019-04-11T16:22:30.237Z,6.60
2019-04-11T16:26:46.613Z,6.70
2019-04-11T16:30:53.284Z,6.60
2019-04-11T16:35:16.095Z,6.50
2019-04-11T16:39:50.194Z,6.50
2019-04-11T16:43:56.153Z,6.40
2019-04-11T16:48:02.767Z,6.30
2019-04-11T16:52:08.341Z,6.10
2019-04-11T16:56:13.340Z,5.90
2019-04-11T17:00:20.618Z,5.90
2019-04-11T17:04:25.994Z,5.90
2019-04-11T17:08:36.259Z,5.90
2019-04-11T17:12:40.825Z,6.00
2019-04-11T17:16:45.455Z,5.90
2019-04-11T17:20:50.150Z,5.90
2019-04-11T17:24:54.966Z,5.80
2019-04-11T17:28:59.615Z,5.80
2019-04-11T17:33:04.282Z,5.60
2019-04-11T17:37:09.024Z,5.80
2019-04-11T17:41:13.654Z,5.70
2019-04-11T17:45:18.289Z,5.20
2019-04-11T17:49:22.969Z,5.30
2019-04-11T17:53:27.663Z,5.30
2019-04-11T17:57:32.360Z,5.40
2019-04-11T18:01:38.097Z,5.50
2019-04-11T18:05:46.856Z,5.60
2019-04-11T18:09:49.959Z,5.50
2019-04-11T18:13:54.945Z,5.60
2019-04-11T18:17:59.549Z,5.50
2019-04-11T18:22:08.266Z,5.20
2019-04-11T18:26:11.838Z,5.30
2019-04-11T18:30:16.899Z,5.40
2019-04-11T18:34:21.723Z,5.40
2019-04-11T18:38:26.405Z,5.20
2019-04-11T18:42:31.212Z,5.20
2019-04-11T18:46:36.011Z,5.30
2019-04-11T18:50:40.773Z,5.20
2019-04-11T18:54:45.505Z,5.30
2019-04-11T18:58:50.261Z,5.10
2019-04-11T19:02:55.387Z,5.30
2019-04-11T19:07:27.303Z,5.30
2019-04-11T19:11:23.783Z,5.30
2019-04-11T19:15:28.716Z,5.00
2019-04-11T19:19:33.341Z,5.00
2019-04-11T19:23:39.076Z,5.10
2019-04-11T19:27:44.406Z,5.10
2019-04-11T19:31:50.961Z,5.10
2019-04-11T19:35:56.438Z,5.20
2019-04-11T19:40:02.076Z,5.20
2019-04-11T19:44:07.137Z,4.90
2019-04-11T19:48:11.830Z,4.90
2019-04-11T19:52:16.488Z,4.90
2019-04-11T19:56:28.436Z,5.00
2019-04-11T20:00:33.419Z,5.00
2019-04-11T20:04:38.115Z,4.90
2019-04-11T20:08:44.211Z,5.00
2019-04-11T20:12:50.012Z,5.00
2019-04-11T20:16:54.726Z,5.10
2019-04-11T20:20:59.616Z,5.10
2019-04-11T20:25:04.647Z,4.90
2019-04-11T20:29:09.560Z,5.00
2019-04-11T20:33:26.252Z,5.10
2019-04-11T20:37:20.957Z,4.80
2019-04-11T20:41:25.666Z,4.80
2019-04-11T20:45:32.038Z,4.70
2019-04-11T20:49:47.186Z,4.90
2019-04-11T20:53:52.009Z,4.80
2019-04-11T20:57:56.782Z,4.70
2019-04-11T21:02:01.369Z,4.80
2019-04-11T21:06:06.121Z,4.90
2019-04-11T21:10:10.946Z,4.70
2019-04-11T21:14:15.625Z,4.80
2019-04-11T21:18:20.260Z,4.80
2019-04-11T21:22:24.990Z,4.80
2019-04-11T21:26:29.713Z,4.70
2019-04-11T21:30:34.462Z,4.60
2019-04-11T21:34:39.097Z,4.80
2019-04-11T21:38:43.697Z,4.70
2019-04-11T21:42:48.668Z,4.70
2019-04-11T21:46:53.296Z,4.50
2019-04-11T21:50:57.889Z,4.50
2019-04-11T21:55:02.579Z,4.70
2019-04-11T21:59:07.688Z,4.60
2019-04-11T22:03:12.618Z,4.60
2019-04-11T22:07:17.325Z,4.60
2019-04-11T22:11:21.965Z,4.60
2019-04-11T22:15:26.978Z,4.40
2019-04-11T22:19:31.547Z,4.40
2019-04-11T22:23:48.101Z,4.40
2019-04-11T22:27:42.567Z,4.40
2019-04-11T22:31:48.800Z,4.30
2019-04-11T22:35:53.403Z,4.30
2019-04-11T22:40:01.673Z,4.40
2019-04-11T22:44:07.788Z,4.40
2019-04-11T22:48:11.970Z,4.50
2019-04-11T22:52:16.706Z,4.50
2019-04-11T22:56:21.589Z,4.30
2019-04-11T23:00:26.224Z,4.20
2019-04-11T23:04:30.913Z,4.30
2019-04-11T23:08:35.544Z,4.50
2019-04-11T23:12:40.141Z,4.40
2019-04-11T23:16:45.032Z,4.30
2019-04-11T23:20:49.674Z,4.30
2019-04-11T23:24:54.233Z,4.20
2019-04-11T23:28:59.176Z,4.10
2019-04-11T23:33:04.069Z,4.10
2019-04-11T23:37:08.756Z,4.20
2019-04-11T23:41:13.373Z,4.30
2019-04-11T23:45:21.328Z,4.30
2019-04-11T23:49:26.971Z,4.20
2019-04-11T23:53:31.579Z,4.30
2019-04-11T23:57:36.289Z,4.40
